createdAt,value
2022-08-30T00:02:27.185Z,15.30
2022-08-30T00:04:54.461Z,15.30
2022-08-30T00:07:22.238Z,15.20
2022-08-30T00:09:49.200Z,15.20
2022-08-30T00:12:16.282Z,15.20
2022-08-30T00:14:43.240Z,15.20
2022-08-30T00:17:10.258Z,15.10
2022-08-30T00:19:38.154Z,15.10
2022-08-30T00:22:07.097Z,15.10
2022-08-30T00:24:34.130Z,15.00
2022-08-30T00:27:01.167Z,15.00
2022-08-30T00:29:28.250Z,15.00
2022-08-30T00:31:55.312Z,15.00
2022-08-30T00:34:22.387Z,14.90
2022-08-30T00:36:49.357Z,14.90
2022-08-30T00:39:16.339Z,14.90
2022-08-30T00:41:43.383Z,14.90
2022-08-30T00:44:10.351Z,14.90
2022-08-30T00:46:37.645Z,14.80
2022-08-30T00:49:08.827Z,14.80
2022-08-30T00:51:36.115Z,14.80
2022-08-30T00:54:03.738Z,14.80
2022-08-30T00:56:31.871Z,14.80
2022-08-30T00:59:02.015Z,14.80
2022-08-30T01:01:33.981Z,14.80
2022-08-30T01:04:02.395Z,14.80
2022-08-30T01:06:32.665Z,14.80
2022-08-30T01:09:01.433Z,14.80
2022-08-30T01:11:28.529Z,14.80
2022-08-30T01:13:56.502Z,14.80
2022-08-30T01:16:25.445Z,14.80
2022-08-30T01:19:23.132Z,14.80
2022-08-30T01:21:57.342Z,14.80
2022-08-30T01:24:24.560Z,14.80
2022-08-30T01:26:51.598Z,14.80
2022-08-30T01:29:22.361Z,14.80
2022-08-30T01:31:50.171Z,14.80
2022-08-30T01:34:17.292Z,14.80
2022-08-30T01:36:46.264Z,14.80
2022-08-30T01:39:17.922Z,14.80
2022-08-30T01:41:45.528Z,14.70
2022-08-30T01:44:13.872Z,14.70
2022-08-30T01:46:45.640Z,14.70
2022-08-30T01:49:16.576Z,14.70
2022-08-30T01:51:44.500Z,14.70
2022-08-30T01:54:12.085Z,14.70
2022-08-30T01:56:39.234Z,14.60
2022-08-30T01:59:06.427Z,14.60
2022-08-30T02:01:37.014Z,14.60
2022-08-30T02:04:05.177Z,14.50
2022-08-30T02:06:32.459Z,14.50
2022-08-30T02:08:59.918Z,14.50
2022-08-30T02:11:26.951Z,14.50
2022-08-30T02:13:55.390Z,14.50
2022-08-30T02:16:24.072Z,14.40
2022-08-30T02:18:53.213Z,14.40
2022-08-30T02:21:20.764Z,14.40
2022-08-30T02:23:48.065Z,14.40
2022-08-30T02:26:16.702Z,14.40
2022-08-30T02:28:49.961Z,14.30
2022-08-30T02:31:20.891Z,14.30
2022-08-30T02:33:50.400Z,14.30
2022-08-30T02:36:18.976Z,14.30
2022-08-30T02:38:46.297Z,14.20
2022-08-30T02:41:14.061Z,14.20
2022-08-30T02:43:41.274Z,14.20
2022-08-30T02:46:08.471Z,14.20
2022-08-30T02:48:35.591Z,14.20
2022-08-30T02:51:11.455Z,14.10
2022-08-30T02:53:40.649Z,14.10
2022-08-30T02:56:08.193Z,14.10
2022-08-30T02:58:35.169Z,14.10
2022-08-30T03:01:02.536Z,14.10
2022-08-30T03:03:29.689Z,14.00
2022-08-30T03:05:56.687Z,14.00
2022-08-30T03:08:24.367Z,14.00
2022-08-30T03:10:52.141Z,14.00
2022-08-30T03:13:19.188Z,13.90
2022-08-30T03:15:46.301Z,13.90
2022-08-30T03:18:13.374Z,13.90
2022-08-30T03:20:41.565Z,13.90
2022-08-30T03:23:11.387Z,13.90
2022-08-30T03:25:48.762Z,13.90
2022-08-30T03:28:15.973Z,13.90
2022-08-30T03:30:42.902Z,13.80
2022-08-30T03:33:09.893Z,13.80
2022-08-30T03:35:38.650Z,13.80
2022-08-30T03:38:06.464Z,13.80
2022-08-30T03:40:33.626Z,13.80
2022-08-30T03:43:01.028Z,13.80
2022-08-30T03:45:28.458Z,13.80
2022-08-30T03:47:55.543Z,13.70
2022-08-30T03:50:22.806Z,13.70
2022-08-30T03:52:50.029Z,13.70
2022-08-30T03:55:17.328Z,13.70
2022-08-30T03:57:44.346Z,13.70
2022-08-30T04:00:12.929Z,13.70
2022-08-30T04:02:40.434Z,13.70
2022-08-30T04:05:09.085Z,13.60
2022-08-30T04:07:36.402Z,13.60
2022-08-30T04:10:06.034Z,13.60
2022-08-30T04:12:33.269Z,13.60
2022-08-30T04:15:00.280Z,13.60
2022-08-30T04:17:27.637Z,13.60
2022-08-30T04:19:54.751Z,13.60
2022-08-30T04:22:22.095Z,13.60
2022-08-30T04:24:49.218Z,13.50
2022-08-30T04:27:20.152Z,13.50
2022-08-30T04:29:47.814Z,13.50
2022-08-30T04:32:16.571Z,13.50
2022-08-30T04:34:44.429Z,13.50
2022-08-30T04:37:11.564Z,13.50
2022-08-30T04:39:38.885Z,13.50
2022-08-30T04:42:06.974Z,13.40
2022-08-30T04:44:34.020Z,13.50
2022-08-30T04:47:01.030Z,13.40
2022-08-30T04:49:28.068Z,13.40
2022-08-30T04:51:55.862Z,13.50
2022-08-30T04:54:22.935Z,13.40
2022-08-30T04:56:49.917Z,13.40
2022-08-30T04:59:17.533Z,13.40
2022-08-30T05:01:46.095Z,13.40
2022-08-30T05:04:14.887Z,13.40
2022-08-30T05:06:41.872Z,13.40
2022-08-30T05:09:08.887Z,13.40
2022-08-30T05:11:35.934Z,13.30
2022-08-30T05:14:02.976Z,13.30
2022-08-30T05:16:30.089Z,13.30
2022-08-30T05:18:58.018Z,13.30
2022-08-30T05:21:26.965Z,13.30
2022-08-30T05:23:57.506Z,13.30
2022-08-30T05:26:27.249Z,13.30
2022-08-30T05:28:54.613Z,13.30
2022-08-30T05:31:27.563Z,13.20
2022-08-30T05:33:55.737Z,13.30
2022-08-30T05:36:25.606Z,13.20
2022-08-30T05:38:54.077Z,13.20
2022-08-30T05:41:23.262Z,13.20
2022-08-30T05:43:57.511Z,13.20
2022-08-30T05:46:25.040Z,13.30
2022-08-30T05:48:52.294Z,13.20
2022-08-30T05:51:22.369Z,13.30
2022-08-30T05:53:51.306Z,13.30
2022-08-30T05:56:21.438Z,13.30
2022-08-30T05:58:52.162Z,13.30
2022-08-30T06:01:29.461Z,13.20
2022-08-30T06:04:02.920Z,13.30
2022-08-30T06:06:32.899Z,13.30
2022-08-30T06:09:00.705Z,13.30
2022-08-30T06:11:28.716Z,13.30
2022-08-30T06:13:56.542Z,13.30
2022-08-30T06:16:25.738Z,13.30
2022-08-30T06:18:53.900Z,13.30
2022-08-30T06:21:25.065Z,13.30
2022-08-30T06:23:52.964Z,13.30
2022-08-30T06:26:20.691Z,13.30
2022-08-30T06:28:47.746Z,13.40
2022-08-30T06:31:17.466Z,13.40
2022-08-30T06:33:45.062Z,13.40
2022-08-30T06:36:19.263Z,13.40
2022-08-30T06:38:47.633Z,13.40
2022-08-30T06:41:18.998Z,13.50
2022-08-30T06:43:49.098Z,13.50
2022-08-30T06:46:23.421Z,13.50
2022-08-30T06:48:50.741Z,13.50
2022-08-30T06:51:27.237Z,13.60
2022-08-30T06:53:54.530Z,13.60
2022-08-30T06:56:22.961Z,13.60
2022-08-30T06:58:49.988Z,13.70
2022-08-30T07:01:24.867Z,13.70
2022-08-30T07:03:52.993Z,13.70
2022-08-30T07:06:20.820Z,13.80
2022-08-30T07:08:56.102Z,13.80
2022-08-30T07:11:36.521Z,13.90
2022-08-30T07:14:04.990Z,14.00
2022-08-30T07:16:32.841Z,14.00
2022-08-30T07:19:01.848Z,14.10
2022-08-30T07:21:34.108Z,14.10
2022-08-30T07:24:01.822Z,14.20
2022-08-30T07:26:33.431Z,14.20
2022-08-30T07:29:01.921Z,14.30
2022-08-30T07:31:30.132Z,14.30
2022-08-30T07:33:57.313Z,14.40
2022-08-30T07:36:25.134Z,14.40
2022-08-30T07:38:52.871Z,14.50
2022-08-30T07:41:26.979Z,14.50
2022-08-30T07:43:54.817Z,14.60
2022-08-30T07:46:23.102Z,14.60
2022-08-30T07:48:50.722Z,14.70
2022-08-30T07:51:21.337Z,14.70
2022-08-30T07:53:48.561Z,14.80
2022-08-30T07:56:16.322Z,14.80
2022-08-30T07:58:43.472Z,14.90
2022-08-30T08:01:12.868Z,15.00
2022-08-30T08:03:41.814Z,15.00
2022-08-30T08:06:10.993Z,15.10
2022-08-30T08:08:38.620Z,15.10
2022-08-30T08:11:33.814Z,15.20
2022-08-30T08:14:01.935Z,15.30
2022-08-30T08:16:30.681Z,15.40
2022-08-30T08:18:57.842Z,15.40
2022-08-30T08:21:25.989Z,15.50
2022-08-30T08:23:53.324Z,15.60
2022-08-30T08:26:21.015Z,15.70
2022-08-30T08:28:48.323Z,15.80
2022-08-30T08:31:21.525Z,15.90
2022-08-30T08:33:51.249Z,16.00
2022-08-30T08:36:18.603Z,16.00
2022-08-30T08:38:46.294Z,16.10
2022-08-30T08:41:28.333Z,16.20
2022-08-30T08:43:55.717Z,16.30
2022-08-30T08:46:37.854Z,16.40
2022-08-30T08:49:07.565Z,16.50
2022-08-30T08:51:57.488Z,16.50
2022-08-30T08:54:49.303Z,16.50
2022-08-30T08:57:17.769Z,16.60
2022-08-30T08:59:46.428Z,16.60
2022-08-30T09:02:25.081Z,16.60
2022-08-30T09:04:56.352Z,16.70
2022-08-30T09:07:30.935Z,16.70
2022-08-30T09:10:00.536Z,16.80
2022-08-30T09:12:28.521Z,16.90
2022-08-30T09:15:09.210Z,17.10
2022-08-30T09:18:16.915Z,17.30
2022-08-30T09:20:51.536Z,17.70
2022-08-30T09:23:30.026Z,18.20
2022-08-30T09:26:00.423Z,18.90
2022-08-30T09:28:31.319Z,19.50
2022-08-30T09:31:17.034Z,20.10
2022-08-30T09:34:15.613Z,20.60
2022-08-30T09:36:52.040Z,21.10
2022-08-30T09:39:28.604Z,21.70
2022-08-30T09:42:11.237Z,22.00
2022-08-30T09:44:39.357Z,22.40
2022-08-30T09:47:24.294Z,22.80
2022-08-30T09:50:06.020Z,23.10
2022-08-30T09:52:55.050Z,23.50
2022-08-30T09:55:45.462Z,23.80
2022-08-30T09:58:50.199Z,24.20
2022-08-30T10:01:24.914Z,24.70
2022-08-30T10:04:02.579Z,25.30
2022-08-30T10:06:49.438Z,25.90
2022-08-30T10:09:35.993Z,26.50
2022-08-30T10:12:29.266Z,27.00
2022-08-30T10:15:21.836Z,27.60
2022-08-30T10:17:56.650Z,28.20
2022-08-30T10:20:33.603Z,28.60
2022-08-30T10:23:12.157Z,29.10
2022-08-30T10:25:45.821Z,29.40
2022-08-30T10:28:46.823Z,29.70
2022-08-30T10:31:17.061Z,30.00
2022-08-30T10:33:49.493Z,30.20
2022-08-30T10:36:31.248Z,30.50
2022-08-30T10:38:59.119Z,30.80
2022-08-30T10:41:32.091Z,30.90
2022-08-30T10:44:13.646Z,31.10
2022-08-30T10:46:52.270Z,31.30
2022-08-30T10:49:23.071Z,31.40
2022-08-30T10:52:08.452Z,31.60
2022-08-30T10:54:51.873Z,31.80
2022-08-30T10:57:20.025Z,31.90
2022-08-30T11:00:10.684Z,32.10
2022-08-30T11:03:05.383Z,32.30
2022-08-30T11:05:43.795Z,32.40
2022-08-30T11:08:22.076Z,32.50
2022-08-30T11:11:16.805Z,32.60
2022-08-30T11:13:46.446Z,32.70
2022-08-30T11:16:17.232Z,32.70
2022-08-30T11:18:54.203Z,32.80
2022-08-30T11:21:58.914Z,32.80
2022-08-30T11:24:25.978Z,32.80
2022-08-30T11:26:57.917Z,32.80
2022-08-30T11:29:41.100Z,32.80
2022-08-30T11:32:17.280Z,32.80
2022-08-30T11:35:11.213Z,32.70
2022-08-30T11:37:43.474Z,32.70
2022-08-30T11:40:34.614Z,32.60
2022-08-30T11:43:44.791Z,32.70
2022-08-30T11:46:26.873Z,32.70
2022-08-30T11:49:15.098Z,32.60
2022-08-30T11:52:26.881Z,32.40
2022-08-30T11:55:03.351Z,32.20
2022-08-30T11:57:50.576Z,32.10
2022-08-30T12:00:39.754Z,31.90
2022-08-30T12:03:32.902Z,31.70
2022-08-30T12:06:06.389Z,31.50
2022-08-30T12:08:34.133Z,31.20
2022-08-30T12:11:08.966Z,30.90
2022-08-30T12:13:37.755Z,30.40
2022-08-30T12:16:12.078Z,30.00
2022-08-30T12:18:53.601Z,29.60
2022-08-30T12:21:31.317Z,29.30
2022-08-30T12:24:22.348Z,28.90
2022-08-30T12:26:51.485Z,28.50
2022-08-30T12:29:20.462Z,28.20
2022-08-30T12:31:56.260Z,27.90
2022-08-30T12:34:37.360Z,27.60
2022-08-30T12:37:08.222Z,27.30
2022-08-30T12:39:44.079Z,27.00
2022-08-30T12:42:26.838Z,26.80
2022-08-30T12:44:58.788Z,26.50
2022-08-30T12:47:34.355Z,26.30
2022-08-30T12:50:02.058Z,26.10
2022-08-30T12:52:35.472Z,25.90
2022-08-30T12:55:24.828Z,25.70
2022-08-30T12:58:02.119Z,25.60
2022-08-30T13:00:34.615Z,25.40
2022-08-30T13:03:25.421Z,25.30
2022-08-30T13:05:53.348Z,25.20
2022-08-30T13:08:36.944Z,25.10
2022-08-30T13:11:12.033Z,25.10
2022-08-30T13:13:45.615Z,25.00
2022-08-30T13:16:20.565Z,25.00
2022-08-30T13:18:53.742Z,25.00
2022-08-30T13:21:26.345Z,25.00
2022-08-30T13:24:03.913Z,25.00
2022-08-30T13:26:37.829Z,25.10
2022-08-30T13:29:14.078Z,25.10
2022-08-30T13:31:41.123Z,25.10
2022-08-30T13:34:08.116Z,25.10
2022-08-30T13:36:40.143Z,25.00
2022-08-30T13:39:12.439Z,24.90
2022-08-30T13:41:40.568Z,24.70
2022-08-30T13:44:11.457Z,24.60
2022-08-30T13:46:42.951Z,24.50
2022-08-30T13:52:19.682Z,24.20
2022-08-30T13:54:49.946Z,24.10
2022-08-30T13:57:53.437Z,23.90
2022-08-30T14:00:10.115Z,23.80
2022-08-30T14:02:45.093Z,23.70
2022-08-30T14:05:37.579Z,23.60
2022-08-30T14:08:03.515Z,23.50
2022-08-30T14:10:32.725Z,23.30
2022-08-30T14:13:08.595Z,23.30
2022-08-30T14:15:38.701Z,23.20
2022-08-30T14:18:07.165Z,23.10
2022-08-30T14:20:38.423Z,23.00
2022-08-30T14:23:07.681Z,22.90
2022-08-30T14:25:40.921Z,22.80
2022-08-30T14:28:09.566Z,22.80
2022-08-30T14:30:37.069Z,22.70
2022-08-30T14:33:04.191Z,22.70
2022-08-30T14:35:31.211Z,22.60
2022-08-30T14:37:58.950Z,22.60
2022-08-30T14:40:26.625Z,22.60
2022-08-30T14:42:54.028Z,22.50
2022-08-30T14:45:21.669Z,22.50
2022-08-30T14:47:50.258Z,22.50
2022-08-30T14:50:17.393Z,22.50
2022-08-30T14:52:45.393Z,22.50
2022-08-30T14:55:13.241Z,22.40
2022-08-30T14:57:40.704Z,22.40
2022-08-30T15:00:10.684Z,22.40
2022-08-30T15:02:38.181Z,22.40
2022-08-30T15:05:08.323Z,22.40
2022-08-30T15:07:35.868Z,22.30
2022-08-30T15:10:03.951Z,22.40
2022-08-30T15:12:31.037Z,22.40
2022-08-30T15:14:58.532Z,22.30
2022-08-30T15:17:25.825Z,22.40
2022-08-30T15:19:52.924Z,22.30
2022-08-30T15:22:19.931Z,22.30
2022-08-30T15:24:50.760Z,22.30
2022-08-30T15:27:18.989Z,22.30
2022-08-30T15:29:46.054Z,22.20
2022-08-30T15:32:14.199Z,22.20
2022-08-30T15:34:41.198Z,22.20
2022-08-30T15:37:09.035Z,22.10
2022-08-30T15:39:36.952Z,22.10
2022-08-30T15:42:04.262Z,22.00
2022-08-30T15:44:32.180Z,22.00
2022-08-30T15:47:01.434Z,22.10
2022-08-30T15:49:28.796Z,22.10
2022-08-30T15:52:01.139Z,22.10
2022-08-30T15:58:09.768Z,22.10
2022-08-30T16:00:40.529Z,22.10
2022-08-30T16:03:11.228Z,22.10
2022-08-30T16:05:38.192Z,22.10
2022-08-30T16:08:05.197Z,22.10
2022-08-30T16:10:32.391Z,22.10
2022-08-30T16:13:01.641Z,22.00
2022-08-30T16:15:30.148Z,22.00
2022-08-30T16:17:57.226Z,21.90
2022-08-30T16:20:25.196Z,21.90
2022-08-30T16:22:52.756Z,21.80
2022-08-30T16:25:19.805Z,21.80
2022-08-30T16:27:47.490Z,21.70
2022-08-30T16:30:16.008Z,21.70
2022-08-30T16:32:43.146Z,21.60
2022-08-30T16:35:10.149Z,21.50
2022-08-30T16:37:37.167Z,21.50
2022-08-30T16:40:04.685Z,21.40
2022-08-30T16:42:33.169Z,21.30
2022-08-30T16:45:02.080Z,21.20
2022-08-30T16:47:33.819Z,21.10
2022-08-30T16:50:01.067Z,21.00
2022-08-30T16:52:28.361Z,21.00
2022-08-30T16:54:55.572Z,20.90
2022-08-30T16:57:23.859Z,20.80
2022-08-30T16:59:52.558Z,20.70
2022-08-30T17:02:19.915Z,20.70
2022-08-30T17:04:51.013Z,20.60
2022-08-30T17:07:22.458Z,20.50
2022-08-30T17:09:50.129Z,20.50
2022-08-30T17:12:17.194Z,20.40
2022-08-30T17:14:44.488Z,20.30
2022-08-30T17:17:11.506Z,20.30
2022-08-30T17:19:42.263Z,20.20
2022-08-30T17:22:11.823Z,20.20
2022-08-30T17:24:39.195Z,20.20
2022-08-30T17:27:07.444Z,20.10
2022-08-30T17:29:34.854Z,20.10
2022-08-30T17:32:02.080Z,20.10
2022-08-30T17:34:29.066Z,20.10
2022-08-30T17:36:58.256Z,20.00
2022-08-30T17:39:27.784Z,20.00
2022-08-30T17:41:55.361Z,20.00
2022-08-30T17:44:26.941Z,19.90
2022-08-30T17:46:55.933Z,19.90
2022-08-30T17:49:24.950Z,19.90
2022-08-30T17:51:56.358Z,19.90
2022-08-30T17:54:25.745Z,19.80
2022-08-30T17:56:53.666Z,19.80
2022-08-30T17:59:25.109Z,19.70
2022-08-30T18:01:54.117Z,19.70
2022-08-30T18:04:21.866Z,19.70
2022-08-30T18:06:52.775Z,19.70
2022-08-30T18:09:19.730Z,19.60
2022-08-30T18:14:34.592Z,19.50
2022-08-30T18:17:03.260Z,19.50
2022-08-30T18:19:30.585Z,19.50
2022-08-30T18:21:58.420Z,19.50
2022-08-30T18:24:26.609Z,19.50
2022-08-30T18:26:56.437Z,19.40
2022-08-30T18:29:29.371Z,19.40
2022-08-30T18:32:03.997Z,19.40
2022-08-30T18:34:31.733Z,19.40
2022-08-30T18:36:58.705Z,19.40
2022-08-30T18:39:26.137Z,19.30
2022-08-30T18:44:43.536Z,19.30
2022-08-30T18:47:11.108Z,19.30
2022-08-30T18:49:38.032Z,19.20
2022-08-30T18:52:08.307Z,19.20
2022-08-30T18:54:52.812Z,19.20
2022-08-30T18:57:21.871Z,19.20
2022-08-30T18:59:49.452Z,19.10
2022-08-30T19:02:17.607Z,19.10
2022-08-30T19:04:45.491Z,19.10
2022-08-30T19:07:14.881Z,19.10
2022-08-30T19:09:43.113Z,19.10
2022-08-30T19:12:11.464Z,19.00
2022-08-30T19:14:39.060Z,19.00
2022-08-30T19:17:07.324Z,19.00
2022-08-30T19:19:37.132Z,19.00
2022-08-30T19:22:15.131Z,18.90
2022-08-30T19:24:42.294Z,18.90
2022-08-30T19:27:10.578Z,18.90
2022-08-30T19:29:37.569Z,18.90
2022-08-30T19:32:04.586Z,18.80
2022-08-30T19:34:31.546Z,18.90
2022-08-30T19:36:58.864Z,18.80
2022-08-30T19:39:26.442Z,18.80
2022-08-30T19:41:53.933Z,18.80
2022-08-30T19:44:20.883Z,18.70
2022-08-30T19:46:47.895Z,18.70
2022-08-30T19:49:15.821Z,18.70
2022-08-30T19:51:46.656Z,18.70
2022-08-30T19:54:30.188Z,18.60
2022-08-30T19:56:57.155Z,18.60
2022-08-30T19:59:24.361Z,18.60
2022-08-30T20:01:51.527Z,18.60
2022-08-30T20:04:18.694Z,18.60
2022-08-30T20:06:46.191Z,18.60
2022-08-30T20:09:14.344Z,18.50
2022-08-30T20:11:42.468Z,18.60
2022-08-30T20:14:10.279Z,18.50
2022-08-30T20:16:40.737Z,18.50
2022-08-30T20:19:10.374Z,18.50
2022-08-30T20:21:38.751Z,18.40
2022-08-30T20:24:09.646Z,18.40
2022-08-30T20:24:27.191Z,19.60
2022-08-30T20:24:29.027Z,19.30
2022-08-30T20:26:38.039Z,18.40
2022-08-30T20:29:05.702Z,18.30
2022-08-30T20:31:33.598Z,18.30
2022-08-30T20:34:01.417Z,18.40
2022-08-30T20:36:29.237Z,18.30
2022-08-30T20:38:56.728Z,18.30
2022-08-30T20:41:24.657Z,18.20
2022-08-30T20:43:52.910Z,18.30
2022-08-30T20:46:20.820Z,18.20
2022-08-30T20:48:48.580Z,18.20
2022-08-30T20:51:18.595Z,18.20
2022-08-30T20:53:46.363Z,18.20
2022-08-30T20:56:20.060Z,18.20
2022-08-30T20:58:47.410Z,18.10
2022-08-30T21:01:16.003Z,18.10
2022-08-30T21:03:44.723Z,18.10
2022-08-30T21:06:11.935Z,18.10
2022-08-30T21:08:39.860Z,18.10
2022-08-30T21:11:07.339Z,18.00
2022-08-30T21:13:35.245Z,18.00
2022-08-30T21:16:03.529Z,18.00
2022-08-30T21:18:36.998Z,18.00
2022-08-30T21:21:21.138Z,18.00
2022-08-30T21:23:49.589Z,17.90
2022-08-30T21:26:17.366Z,17.90
2022-08-30T21:28:50.339Z,17.90
2022-08-30T21:31:20.523Z,17.90
2022-08-30T21:33:49.629Z,17.90
2022-08-30T21:36:35.677Z,17.90
2022-08-30T21:39:03.145Z,17.80
2022-08-30T21:41:31.642Z,17.80
2022-08-30T21:44:05.580Z,17.80
2022-08-30T21:46:34.390Z,17.80
2022-08-30T21:49:04.515Z,17.80
2022-08-30T21:51:38.154Z,17.80
2022-08-30T21:54:08.569Z,17.80
2022-08-30T21:56:38.058Z,17.80
2022-08-30T21:59:05.987Z,17.80
2022-08-30T22:01:33.849Z,17.70
2022-08-30T22:04:05.469Z,17.70
2022-08-30T22:06:35.223Z,17.70
2022-08-30T22:09:05.469Z,17.70
2022-08-30T22:11:34.337Z,17.70
2022-08-30T22:14:02.948Z,17.70
2022-08-30T22:16:31.026Z,17.70
2022-08-30T22:18:58.337Z,17.60
2022-08-30T22:21:28.536Z,17.60
2022-08-30T22:23:56.403Z,17.60
2022-08-30T22:26:24.790Z,17.60
2022-08-30T22:28:52.571Z,17.50
2022-08-30T22:31:20.878Z,17.50
2022-08-30T22:33:48.949Z,17.50
2022-08-30T22:36:23.334Z,17.50
2022-08-30T22:39:01.029Z,17.50
2022-08-30T22:41:31.496Z,17.50
2022-08-30T22:43:58.926Z,17.40
2022-08-30T22:46:34.030Z,17.40
2022-08-30T22:49:03.214Z,17.40
2022-08-30T22:51:30.088Z,17.40
2022-08-30T22:53:57.314Z,17.40
2022-08-30T22:56:26.078Z,17.40
2022-08-30T22:58:54.643Z,17.30
2022-08-30T23:01:23.788Z,17.30
2022-08-30T23:03:52.195Z,17.30
2022-08-30T23:06:19.717Z,17.30
2022-08-30T23:08:48.164Z,17.20
2022-08-30T23:11:15.558Z,17.20
2022-08-30T23:13:43.691Z,17.20
2022-08-30T23:16:12.305Z,17.20
2022-08-30T23:18:42.759Z,17.20
2022-08-30T23:21:14.593Z,17.20
2022-08-30T23:24:00.638Z,17.10
2022-08-30T23:26:46.704Z,17.10
2022-08-30T23:29:33.115Z,17.10
2022-08-30T23:32:18.567Z,17.10
2022-08-30T23:35:04.426Z,17.10
2022-08-30T23:37:52.994Z,17.10
2022-08-30T23:40:40.266Z,17.00
2022-08-30T23:43:26.866Z,17.00
2022-08-30T23:46:18.937Z,17.00
2022-08-30T23:49:09.065Z,17.00
2022-08-30T23:51:56.736Z,17.00
2022-08-30T23:54:43.312Z,17.00
2022-08-30T23:57:29.373Z,16.90
